Time;durP1;ratioP1;P1;durP2;ratioP2;P2;SDS_P1;SDS_P2;PMS_P1;PMS_P2;Temp;Humidity;BMP_temperature;BMP_pressure;BME280_temperature;BME280_humidity;BME280_pressure;Samples;Min_cycle;Max_cycle;Signal;HPM_P1;HPM_P2
2021/03/22 00:00:21;;;;;;;;;;;;;;;;;;5052173;28;19909;-66
2021/03/22 00:02:46;;;;;;;;;;;;;;;;;;5055809;28;19911;-66
2021/03/22 00:05:12;;;;;;;;;;;;;;;;;;5055934;28;19967;-66
2021/03/22 00:07:37;;;;;;;;;;;;;;;;;;5061549;28;19986;-66
2021/03/22 00:10:02;;;;;;;;;;;;;;;;;;5058162;28;19923;-66
2021/03/22 00:12:27;;;;;;;;;;;;;;;;;;5072475;28;20019;-66
2021/03/22 00:14:52;;;;;;;;;;;;;;;;;;5072634;28;19956;-65
2021/03/22 00:17:17;;;;;;;;;;;;;;;;;;5050576;28;20380;-66
2021/03/22 00:19:42;;;;;;;;;;;;;;;;;;5064674;28;19912;-65
2021/03/22 00:22:07;;;;;;;;;;;;;;;;;;5052069;28;19916;-67
2021/03/22 00:24:32;;;;;;;;;;;;;;;;;;5070979;28;19913;-66
2021/03/22 00:26:58;;;;;;;;;;;;;;;;;;5063472;28;20286;-66
2021/03/22 00:29:23;;;;;;;;;;;;;;;;;;5067685;28;20011;-66
2021/03/22 00:31:48;;;;;;;;;;;;;;;;;;5075919;28;20028;-66
2021/03/22 00:34:13;;;;;;;;;;;;;;;;;;5074868;28;20007;-66
2021/03/22 00:36:38;;;;;;;;;;;;;;;;;;5064191;28;19928;-66
2021/03/22 00:39:03;;;;;;;;;;;;;;;;;;5070948;28;20372;-66
2021/03/22 00:41:28;;;;;;;;;;;;;;;;;;5058517;28;19919;-66
2021/03/22 00:43:53;;;;;;;;;;;;;;;;;;5057463;28;20351;-66
2021/03/22 00:46:19;;;;;;;;;;;;;;;;;;5066947;28;19913;-66
2021/03/22 00:48:44;;;;;;;;;;;;;;;;;;5063830;28;19912;-66
2021/03/22 00:51:09;;;;;;;;;;;;;;;;;;5056480;28;19912;-66
2021/03/22 00:53:34;;;;;;;;;;;;;;;;;;5074748;28;20011;-66
2021/03/22 00:55:59;;;;;;;;;;;;;;;;;;5066214;28;19960;-66
2021/03/22 00:58:24;;;;;;;;;;;;;;;;;;5056590;28;19947;-66
2021/03/22 01:00:49;;;;;;;;;;;;;;;;;;5055228;28;20367;-66
2021/03/22 01:03:14;;;;;;;;;;;;;;;;;;5064046;28;19912;-66
2021/03/22 01:05:39;;;;;;;;;;;;;;;;;;5066639;28;19912;-67
2021/03/22 01:08:05;;;;;;;;;;;;;;;;;;5071952;28;19912;-66
2021/03/22 01:10:30;;;;;;;;;;;;;;;;;;5071845;28;19913;-66
2021/03/22 01:12:55;;;;;;;;;;;;;;;;;;5059052;28;19963;-65
2021/03/22 01:15:20;;;;;;;;;;;;;;;;;;5054047;28;20390;-65
2021/03/22 01:17:45;;;;;;;;;;;;;;;;;;5065875;28;20007;-65
2021/03/22 01:20:10;;;;;;;;;;;;;;;;;;5058685;28;20011;-65
2021/03/22 01:22:35;;;;;;;;;;;;;;;;;;5056142;28;20051;-64
2021/03/22 01:25:00;;;;;;;;;;;;;;;;;;5069935;28;20019;-66
2021/03/22 01:27:26;;;;;;;;;;;;;;;;;;5066915;28;19995;-66
2021/03/22 01:29:51;;;;;;;;;;;;;;;;;;5062262;28;20032;-66
2021/03/22 01:32:16;;;;;;;;;;;;;;;;;;5054630;28;20003;-66
2021/03/22 01:34:41;;;;;;;;;;;;;;;;;;5067984;28;20062;-65
2021/03/22 01:37:06;;;;;;;;;;;;;;;;;;5056526;28;20023;-66
2021/03/22 01:39:31;;;;;;;;;;;;;;;;;;5064642;28;19946;-66
2021/03/22 01:41:56;;;;;;;;;;;;;;;;;;5074818;28;19951;-66
2021/03/22 01:44:22;;;;;;;;;;;;;;;;;;5061486;28;19912;-66
2021/03/22 01:46:47;;;;;;;;;;;;;;;;;;5061279;28;20085;-66
2021/03/22 01:49:12;;;;;;;;;;;;;;;;;;5074107;28;19909;-65
2021/03/22 01:51:37;;;;;;;;;;;;;;;;;;5058565;28;19919;-66
2021/03/22 01:54:02;;;;;;;;;;;;;;;;;;5063204;28;20018;-66
2021/03/22 01:56:27;;;;;;;;;;;;;;;;;;5064765;28;19950;-66
2021/03/22 01:58:52;;;;;;;;;;;;;;;;;;5066939;28;19912;-66
2021/03/22 02:01:17;;;;;;;;;;;;;;;;;;5059320;28;19944;-66
2021/03/22 02:03:43;;;;;;;;;;;;;;;;;;5066894;28;19965;-66
2021/03/22 02:06:08;;;;;;;;;;;;;;;;;;5071513;28;19969;-66
2021/03/22 02:08:33;;;;;;;;;;;;;;;;;;5072912;28;19908;-66
2021/03/22 02:10:58;;;;;;;;;;;;;;;;;;5061657;28;20330;-66
2021/03/22 02:13:23;;;;;;;;;;;;;;;;;;5064086;28;20417;-65
2021/03/22 02:15:48;;;;;;;;;;;;;;;;;;5064300;28;20372;-65
2021/03/22 02:18:13;;;;;;;;;;;;;;;;;;5052652;28;20303;-65
2021/03/22 02:20:38;;;;;;;;;;;;;;;;;;5068895;28;20377;-66
2021/03/22 02:23:03;;;;;;;;;;;;;;;;;;5057135;28;20004;-66
2021/03/22 02:25:29;;;;;;;;;;;;;;;;;;5070726;28;19995;-66
2021/03/22 02:27:54;;;;;;;;;;;;;;;;;;5066213;28;20003;-66
2021/03/22 02:30:19;;;;;;;;;;;;;;;;;;5067081;28;20011;-66
2021/03/22 02:32:44;;;;;;;;;;;;;;;;;;5073100;28;20003;-65
2021/03/22 02:35:09;;;;;;;;;;;;;;;;;;5066196;28;20011;-66
2021/03/22 02:37:34;;;;;;;;;;;;;;;;;;5050653;28;19996;-66
2021/03/22 02:40:01;;;;;;;;;;;;;;;;;;5052774;28;20450;-66
2021/03/22 02:42:26;;;;;;;;;;;;;;;;;;5054588;28;20304;-66
2021/03/22 02:44:51;;;;;;;;;;;;;;;;;;5067166;28;20053;-66
2021/03/22 02:47:16;;;;;;;;;;;;;;;;;;5063119;28;19956;-66
2021/03/22 02:49:41;;;;;;;;;;;;;;;;;;5066963;28;19958;-66
2021/03/22 02:52:06;;;;;;;;;;;;;;;;;;5053726;28;19987;-66
2021/03/22 02:54:31;;;;;;;;;;;;;;;;;;5053803;28;19913;-66
2021/03/22 02:56:56;;;;;;;;;;;;;;;;;;5065149;28;19925;-66
2021/03/22 02:59:21;;;;;;;;;;;;;;;;;;5060442;28;19958;-67
2021/03/22 03:01:47;;;;;;;;;;;;;;;;;;5064724;28;19912;-65
2021/03/22 03:04:12;;;;;;;;;;;;;;;;;;5070121;28;20351;-66
2021/03/22 03:06:37;;;;;;;;;;;;;;;;;;5069763;28;19960;-66
2021/03/22 03:09:02;;;;;;;;;;;;;;;;;;5072001;28;19913;-66
2021/03/22 03:11:27;;;;;;;;;;;;;;;;;;5070517;28;19916;-66
2021/03/22 03:13:52;;;;;;;;;;;;;;;;;;5073290;28;19909;-66
2021/03/22 03:16:17;;;;;;;;;;;;;;;;;;5070011;28;19916;-65
2021/03/22 03:18:42;;;;;;;;;;;;;;;;;;5073112;28;19908;-65
2021/03/22 03:21:07;;;;;;;;;;;;;;;;;;5057284;28;19928;-65
2021/03/22 03:23:33;;;;;;;;;;;;;;;;;;5066213;28;19913;-65
2021/03/22 03:25:58;;;;;;;;;;;;;;;;;;5069121;28;19916;-65
2021/03/22 03:28:23;;;;;;;;;;;;;;;;;;5067770;28;19919;-65
2021/03/22 03:30:48;;;;;;;;;;;;;;;;;;5059712;28;19917;-65
2021/03/22 03:33:13;;;;;;;;;;;;;;;;;;5066608;28;19913;-65
2021/03/22 03:35:38;;;;;;;;;;;;;;;;;;5059912;28;20003;-66
2021/03/22 03:38:03;;;;;;;;;;;;;;;;;;5052814;28;19913;-65
2021/03/22 03:40:28;;;;;;;;;;;;;;;;;;5054877;28;20015;-65
2021/03/22 03:42:53;;;;;;;;;;;;;;;;;;5063252;28;19952;-66
2021/03/22 03:45:18;;;;;;;;;;;;;;;;;;5066509;28;19948;-65
2021/03/22 03:47:44;;;;;;;;;;;;;;;;;;5071396;28;19909;-64
2021/03/22 03:50:09;;;;;;;;;;;;;;;;;;5055741;28;19913;-65
2021/03/22 03:52:34;;;;;;;;;;;;;;;;;;5067613;28;20286;-66
2021/03/22 03:54:59;;;;;;;;;;;;;;;;;;5060925;28;20388;-65
2021/03/22 03:57:24;;;;;;;;;;;;;;;;;;5053314;28;20012;-65
2021/03/22 03:59:49;;;;;;;;;;;;;;;;;;5055942;28;19912;-64
2021/03/22 04:02:14;;;;;;;;;;;;;;;;;;5057993;28;19920;-64
2021/03/22 04:04:39;;;;;;;;;;;;;;;;;;5065728;28;19919;-65
2021/03/22 04:07:05;;;;;;;;;;;;;;;;;;5071839;28;19912;-66
2021/03/22 04:09:30;;;;;;;;;;;;;;;;;;5064808;28;20387;-67
2021/03/22 04:11:55;;;;;;;;;;;;;;;;;;5058332;28;20655;-66
2021/03/22 04:14:20;;;;;;;;;;;;;;;;;;5057266;28;20356;-65
2021/03/22 04:16:45;;;;;;;;;;;;;;;;;;5053495;28;20378;-65
2021/03/22 04:19:10;;;;;;;;;;;;;;;;;;5055349;28;20286;-65
2021/03/22 04:21:36;;;;;;;;;;;;;;;;;;5066178;28;19912;-66
2021/03/22 04:24:01;;;;;;;;;;;;;;;;;;5073722;28;19912;-66
2021/03/22 04:26:26;;;;;;;;;;;;;;;;;;5073061;28;19958;-65
2021/03/22 04:28:51;;;;;;;;;;;;;;;;;;5067792;28;19909;-65
2021/03/22 04:31:16;;;;;;;;;;;;;;;;;;5055217;28;19920;-62
2021/03/22 04:33:41;;;;;;;;;;;;;;;;;;5060255;28;19913;-64
2021/03/22 04:36:06;;;;;;;;;;;;;;;;;;5055100;28;19909;-65
2021/03/22 04:38:32;;;;;;;;;;;;;;;;;;5088168;28;19909;-65
2021/03/22 04:40:57;;;;;;;;;;;;;;;;;;5068742;28;19919;-65
2021/03/22 04:43:22;;;;;;;;;;;;;;;;;;5061429;28;19948;-65
2021/03/22 04:45:47;;;;;;;;;;;;;;;;;;5068429;28;19954;-65
2021/03/22 04:48:12;;;;;;;;;;;;;;;;;;5070737;28;19944;-65
2021/03/22 04:50:37;;;;;;;;;;;;;;;;;;5064906;28;19928;-65
2021/03/22 04:53:02;;;;;;;;;;;;;;;;;;5071612;28;19920;-65
2021/03/22 04:55:27;;;;;;;;;;;;;;;;;;5053435;28;19918;-65
2021/03/22 04:57:52;;;;;;;;;;;;;;;;;;5066318;28;19916;-65
2021/03/22 05:00:18;;;;;;;;;;;;;;;;;;5067827;28;19913;-65
2021/03/22 05:02:43;;;;;;;;;;;;;;;;;;5055569;28;19975;-65
2021/03/22 05:05:08;;;;;;;;;;;;;;;;;;5060742;28;19916;-65
2021/03/22 05:07:33;;;;;;;;;;;;;;;;;;5052452;28;19919;-67
2021/03/22 05:09:58;;;;;;;;;;;;;;;;;;5057614;28;19923;-65
2021/03/22 05:12:23;;;;;;;;;;;;;;;;;;5059920;28;20003;-65
2021/03/22 05:14:48;;;;;;;;;;;;;;;;;;5074149;28;20007;-65
2021/03/22 05:17:14;;;;;;;;;;;;;;;;;;5051736;28;20015;-64
2021/03/22 05:19:39;;;;;;;;;;;;;;;;;;5055388;28;19912;-66
2021/03/22 05:22:04;;;;;;;;;;;;;;;;;;5055250;28;20426;-66
2021/03/22 05:24:29;;;;;;;;;;;;;;;;;;5053822;28;20363;-65
2021/03/22 05:26:54;;;;;;;;;;;;;;;;;;5064628;28;20361;-65
2021/03/22 05:29:19;;;;;;;;;;;;;;;;;;5067966;28;20457;-65
2021/03/22 05:31:44;;;;;;;;;;;;;;;;;;5064011;28;20376;-64
2021/03/22 05:34:10;;;;;;;;;;;;;;;;;;5068356;28;19913;-65
2021/03/22 05:36:35;;;;;;;;;;;;;;;;;;5053048;28;19913;-65
2021/03/22 05:39:00;;;;;;;;;;;;;;;;;;5071578;28;19921;-65
2021/03/22 05:41:25;;;;;;;;;;;;;;;;;;5067423;28;20431;-65
2021/03/22 05:43:50;;;;;;;;;;;;;;;;;;5062897;28;20055;-66
2021/03/22 05:46:15;;;;;;;;;;;;;;;;;;5059934;28;20306;-65
2021/03/22 05:48:40;;;;;;;;;;;;;;;;;;5071209;28;20353;-66
2021/03/22 05:51:06;;;;;;;;;;;;;;;;;;5067590;28;20448;-65
2021/03/22 05:53:31;;;;;;;;;;;;;;;;;;5064615;28;20539;-65
2021/03/22 05:55:56;;;;;;;;;;;;;;;;;;5059862;28;19913;-65
2021/03/22 05:58:21;;;;;;;;;;;;;;;;;;5055424;28;19962;-66
2021/03/22 06:00:47;;;;;;;;;;;;;;;;;;5071134;28;20010;-65
2021/03/22 06:03:12;;;;;;;;;;;;;;;;;;5054586;28;20000;-66
2021/03/22 06:05:37;;;;;;;;;;;;;;;;;;5055423;28;19924;-68
2021/03/22 06:08:02;;;;;;;;;;;;;;;;;;5087564;28;19935;-69
2021/03/22 06:10:27;;;;;;;;;;;;;;;;;;5068786;28;19924;-68
2021/03/22 06:12:52;;;;;;;;;;;;;;;;;;5053575;28;19913;-67
2021/03/22 06:15:17;;;;;;;;;;;;;;;;;;5062587;28;19917;-67
2021/03/22 06:17:42;;;;;;;;;;;;;;;;;;5063589;28;19969;-67
2021/03/22 06:20:07;;;;;;;;;;;;;;;;;;5073299;28;20023;-67
2021/03/22 06:22:33;;;;;;;;;;;;;;;;;;5057144;28;20003;-67
2021/03/22 06:24:58;;;;;;;;;;;;;;;;;;5056334;28;20015;-67
2021/03/22 06:27:23;;;;;;;;;;;;;;;;;;5062447;28;19970;-67
2021/03/22 06:29:48;;;;;;;;;;;;;;;;;;5061061;28;19948;-66
2021/03/22 06:32:13;;;;;;;;;;;;;;;;;;5071094;28;20010;-66
2021/03/22 06:34:38;;;;;;;;;;;;;;;;;;5046665;28;20019;-67
2021/03/22 06:37:03;;;;;;;;;;;;;;;;;;5068875;28;20037;-67
2021/03/22 06:39:29;;;;;;;;;;;;;;;;;;5065095;28;19994;-67
2021/03/22 06:41:54;;;;;;;;;;;;;;;;;;5067021;28;19912;-67
2021/03/22 06:44:19;;;;;;;;;;;;;;;;;;5072586;28;20347;-67
2021/03/22 06:46:44;;;;;;;;;;;;;;;;;;5057426;28;19967;-67
2021/03/22 06:49:09;;;;;;;;;;;;;;;;;;5054022;28;20353;-67
2021/03/22 06:51:34;;;;;;;;;;;;;;;;;;5039529;28;19995;-66
2021/03/22 06:54:00;;;;;;;;;;;;;;;;;;5052945;28;20309;-67
2021/03/22 06:56:25;;;;;;;;;;;;;;;;;;5070698;28;20376;-67
2021/03/22 06:58:50;;;;;;;;;;;;;;;;;;5066372;28;19913;-68
2021/03/22 07:01:15;;;;;;;;;;;;;;;;;;5082702;28;19913;-66
2021/03/22 07:03:41;;;;;;;;;;;;;;;;;;5068101;28;20330;-68
2021/03/22 07:06:06;;;;;;;;;;;;;;;;;;5083507;28;19913;-68
2021/03/22 07:08:31;;;;;;;;;;;;;;;;;;5048689;28;20315;-67
2021/03/22 07:10:56;;;;;;;;;;;;;;;;;;5068642;28;19913;-67
2021/03/22 07:13:21;;;;;;;;;;;;;;;;;;5058809;28;20337;-67
2021/03/22 07:15:47;;;;;;;;;;;;;;;;;;5051029;28;20217;-66
2021/03/22 07:18:12;;;;;;;;;;;;;;;;;;5051548;28;19917;-66
2021/03/22 07:20:37;;;;;;;;;;;;;;;;;;5052644;28;19912;-67
2021/03/22 07:23:02;;;;;;;;;;;;;;;;;;5065112;28;19923;-66
2021/03/22 07:25:27;;;;;;;;;;;;;;;;;;5070834;28;20007;-67
2021/03/22 07:27:52;;;;;;;;;;;;;;;;;;5060329;28;19996;-67
2021/03/22 07:30:17;;;;;;;;;;;;;;;;;;5050271;28;20016;-66
2021/03/22 07:32:45;;;;;;;;;;;;;;;;;;5070498;28;19928;-67
2021/03/22 07:35:10;;;;;;;;;;;;;;;;;;5043306;28;19946;-65
2021/03/22 07:37:35;;;;;;;;;;;;;;;;;;5060101;28;19916;-67
2021/03/22 07:40:00;;;;;;;;;;;;;;;;;;5060512;28;19958;-66
2021/03/22 07:42:25;;;;;;;;;;;;;;;;;;5044185;28;20010;-67
2021/03/22 07:44:51;;;;;;;;;;;;;;;;;;5039864;28;20330;-67
2021/03/22 07:47:16;;;;;;;;;;;;;;;;;;5036798;28;19955;-66
2021/03/22 07:49:41;;;;;;;;;;;;;;;;;;5082672;28;19913;-66
2021/03/22 07:52:06;;;;;;;;;;;;;;;;;;5091886;28;20368;-67
2021/03/22 07:54:31;;;;;;;;;;;;;;;;;;5071911;28;19913;-66
2021/03/22 07:56:56;;;;;;;;;;;;;;;;;;5044950;28;20016;-67
2021/03/22 07:59:22;;;;;;;;;;;;;;;;;;5051040;28;19999;-67
2021/03/22 08:01:47;;;;;;;;;;;;;;;;;;5063217;28;20442;-67
2021/03/22 08:04:12;;;;;;;;;;;;;;;;;;5057657;28;19915;-66
2021/03/22 08:06:37;;;;;;;;;;;;;;;;;;5040299;28;19913;-68
2021/03/22 08:09:02;;;;;;;;;;;;;;;;;;5038650;28;19913;-66
2021/03/22 08:11:27;;;;;;;;;;;;;;;;;;5087246;28;20383;-67
2021/03/22 08:13:52;;;;;;;;;;;;;;;;;;5045842;28;20008;-67
2021/03/22 08:16:17;;;;;;;;;;;;;;;;;;5048996;28;20003;-67
2021/03/22 08:18:42;;;;;;;;;;;;;;;;;;5057231;28;19935;-67
2021/03/22 08:21:08;;;;;;;;;;;;;;;;;;5053793;28;19923;-67
2021/03/22 08:23:33;;;;;;;;;;;;;;;;;;5057767;28;19913;-67
2021/03/22 08:25:58;;;;;;;;;;;;;;;;;;5056153;28;20295;-67
2021/03/22 08:28:23;;;;;;;;;;;;;;;;;;5051955;28;20256;-67
2021/03/22 08:30:48;;;;;;;;;;;;;;;;;;5047116;28;20437;-67
2021/03/22 08:33:13;;;;;;;;;;;;;;;;;;5057979;28;19943;-67
2021/03/22 08:35:38;;;;;;;;;;;;;;;;;;5051661;28;19913;-66
2021/03/22 08:38:04;;;;;;;;;;;;;;;;;;5057936;28;20445;-67
2021/03/22 08:40:29;;;;;;;;;;;;;;;;;;5058423;28;19995;-67
2021/03/22 08:42:54;;;;;;;;;;;;;;;;;;5050879;28;20003;-67
2021/03/22 08:45:19;;;;;;;;;;;;;;;;;;5060762;28;20016;-66
2021/03/22 08:47:44;;;;;;;;;;;;;;;;;;5093738;28;19912;-67
2021/03/22 08:50:09;;;;;;;;;;;;;;;;;;5059791;28;19943;-67
2021/03/22 08:52:34;;;;;;;;;;;;;;;;;;5040790;28;19955;-67
2021/03/22 08:55:00;;;;;;;;;;;;;;;;;;5067749;28;19935;-68
2021/03/22 08:57:25;;;;;;;;;;;;;;;;;;5046256;28;19917;-66
2021/03/22 08:59:50;;;;;;;;;;;;;;;;;;5046056;28;20265;-67
2021/03/22 09:02:15;;;;;;;;;;;;;;;;;;5054084;28;19913;-66
2021/03/22 09:04:41;;;;;;;;;;;;;;;;;;5086025;28;19913;-65
2021/03/22 09:07:07;;;;;;;;;;;;;;;;;;5042503;28;19967;-66
2021/03/22 09:09:32;;;;;;;;;;;;;;;;;;5084329;28;20279;-66
2021/03/22 09:11:57;;;;;;;;;;;;;;;;;;5055112;28;19917;-65
2021/03/22 09:14:23;;;;;;;;;;;;;;;;;;5060958;28;19920;-66
2021/03/22 09:16:48;;;;;;;;;;;;;;;;;;5058820;28;19965;-66
2021/03/22 09:19:13;;;;;;;;;;;;;;;;;;5052094;28;20007;-64
2021/03/22 09:21:38;;;;;;;;;;;;;;;;;;5087842;28;19913;-65
2021/03/22 09:24:03;;;;;;;;;;;;;;;;;;5070855;28;20280;-66
2021/03/22 09:26:28;;;;;;;;;;;;;;;;;;5059309;28;19921;-67
2021/03/22 09:28:58;;;;;;;;;;;;;;;;;;5048438;28;19952;-64
2021/03/22 09:31:23;;;;;;;;;;;;;;;;;;5050218;28;19928;-65
2021/03/22 09:33:48;;;;;;;;;;;;;;;;;;5061668;28;20456;-65
2021/03/22 09:36:13;;;;;;;;;;;;;;;;;;5049838;28;19971;-65
2021/03/22 09:38:38;;;;;;;;;;;;;;;;;;5037349;28;20031;-65
2021/03/22 09:41:04;;;;;;;;;;;;;;;;;;5082564;28;20355;-67
2021/03/22 09:43:29;;;;;;;;;;;;;;;;;;5048565;28;20351;-66
2021/03/22 09:45:55;;;;;;;;;;;;;;;;;;5058436;28;20423;-66
2021/03/22 09:48:20;;;;;;;;;;;;;;;;;;5078718;28;19963;-65
2021/03/22 09:50:45;;;;;;;;;;;;;;;;;;5054249;28;19912;-65
2021/03/22 09:53:10;;;;;;;;;;;;;;;;;;5070476;28;19921;-65
2021/03/22 09:55:35;;;;;;;;;;;;;;;;;;5031879;28;19924;-66
2021/03/22 09:58:00;;;;;;;;;;;;;;;;;;5075892;28;20371;-66
2021/03/22 10:00:26;;;;;;;;;;;;;;;;;;5051036;28;19921;-66
2021/03/22 10:02:51;;;;;;;;;;;;;;;;;;5052873;28;19988;-64
2021/03/22 10:05:16;;;;;;;;;;;;;;;;;;5052260;28;20295;-66
2021/03/22 10:07:42;;;;;;;;;;;;;;;;;;5074444;28;19956;-65
2021/03/22 10:10:07;;;;;;;;;;;;;;;;;;5056478;28;19915;-64
2021/03/22 10:12:32;;;;;;;;;;;;;;;;;;5059504;28;20275;-63
2021/03/22 10:14:57;;;;;;;;;;;;;;;;;;5053541;28;19964;-66
2021/03/22 10:17:22;;;;;;;;;;;;;;;;;;5050267;28;19939;-62
2021/03/22 10:19:47;;;;;;;;;;;;;;;;;;5049112;28;20372;-64
2021/03/22 10:22:12;;;;;;;;;;;;;;;;;;5050459;28;19913;-63
2021/03/22 10:24:37;;;;;;;;;;;;;;;;;;5052384;28;19999;-64
2021/03/22 10:27:03;;;;;;;;;;;;;;;;;;5047059;28;20447;-66
2021/03/22 10:29:28;;;;;;;;;;;;;;;;;;5035377;28;19920;-66
2021/03/22 10:31:53;;;;;;;;;;;;;;;;;;5049018;28;20327;-64
2021/03/22 10:34:18;;;;;;;;;;;;;;;;;;5038945;28;19923;-64
2021/03/22 10:36:43;;;;;;;;;;;;;;;;;;5030650;28;19919;-64
2021/03/22 10:39:08;;;;;;;;;;;;;;;;;;5033860;28;20369;-67
2021/03/22 10:41:33;;;;;;;;;;;;;;;;;;5046829;28;20380;-68
2021/03/22 10:43:58;;;;;;;;;;;;;;;;;;5041168;28;19917;-68
2021/03/22 10:46:24;;;;;;;;;;;;;;;;;;5078816;28;19920;-62
2021/03/22 10:48:49;;;;;;;;;;;;;;;;;;5085406;28;19909;-63
2021/03/22 10:51:14;;;;;;;;;;;;;;;;;;5046810;28;19920;-62
2021/03/22 10:53:39;;;;;;;;;;;;;;;;;;5033613;28;19909;-65
2021/03/22 10:56:04;;;;;;;;;;;;;;;;;;5057239;28;19909;-65
2021/03/22 10:58:29;;;;;;;;;;;;;;;;;;5052973;28;19916;-65
2021/03/22 11:00:54;;;;;;;;;;;;;;;;;;5042166;28;20027;-65
2021/03/22 11:03:20;;;;;;;;;;;;;;;;;;5045558;28;19916;-69
2021/03/22 11:05:45;;;;;;;;;;;;;;;;;;5048636;28;19913;-65
2021/03/22 11:08:10;;;;;;;;;;;;;;;;;;5050804;28;19917;-64
2021/03/22 11:10:35;;;;;;;;;;;;;;;;;;5041104;28;20368;-65
2021/03/22 11:13:00;;;;;;;;;;;;;;;;;;5052814;28;19920;-67
2021/03/22 11:15:26;;;;;;;;;;;;;;;;;;5051037;28;19920;-68
2021/03/22 11:17:51;;;;;;;;;;;;;;;;;;5051258;28;19978;-70
2021/03/22 11:20:16;;;;;;;;;;;;;;;;;;5035667;28;20424;-64
2021/03/22 11:22:41;;;;;;;;;;;;;;;;;;5043067;28;19915;-65
2021/03/22 11:25:09;;;;;;;;;;;;;;;;;;5040478;28;19920;-67
2021/03/22 11:27:34;;;;;;;;;;;;;;;;;;5062138;28;19974;-68
2021/03/22 11:30:00;;;;;;;;;;;;;;;;;;5065216;28;19909;-69
2021/03/22 11:32:26;;;;;;;;;;;;;;;;;;5034057;28;20395;-66
2021/03/22 11:34:54;;;;;;;;;;;;;;;;;;5046254;28;19953;-65
2021/03/22 11:37:20;;;;;;;;;;;;;;;;;;5063621;28;20376;-66
2021/03/22 11:39:45;;;;;;;;;;;;;;;;;;5033030;28;19995;-66
2021/03/22 11:42:10;;;;;;;;;;;;;;;;;;5033236;28;20043;-66
2021/03/22 11:44:36;;;;;;;;;;;;;;;;;;5037112;28;19909;-66
2021/03/22 11:47:01;;;;;;;;;;;;;;;;;;5049797;28;19935;-66
2021/03/22 11:49:26;;;;;;;;;;;;;;;;;;5050084;28;20011;-66
2021/03/22 11:51:51;;;;;;;;;;;;;;;;;;5065362;28;20004;-69
2021/03/22 11:54:16;;;;;;;;;;;;;;;;;;5037906;28;20019;-68
2021/03/22 11:56:41;;;;;;;;;;;;;;;;;;5081952;28;19913;-67
2021/03/22 11:59:07;;;;;;;;;;;;;;;;;;5046854;28;20447;-69
2021/03/22 12:01:32;;;;;;;;;;;;;;;;;;5046806;28;19916;-70
2021/03/22 12:03:57;;;;;;;;;;;;;;;;;;5052532;28;19908;-71
2021/03/22 12:06:22;;;;;;;;;;;;;;;;;;5071160;28;19927;-67
2021/03/22 12:08:48;;;;;;;;;;;;;;;;;;5059467;28;19917;-67
2021/03/22 12:11:13;;;;;;;;;;;;;;;;;;5080410;28;19919;-67
2021/03/22 12:13:38;;;;;;;;;;;;;;;;;;5038065;28;19955;-67
2021/03/22 12:16:03;;;;;;;;;;;;;;;;;;5045517;28;19920;-68
2021/03/22 12:18:28;;;;;;;;;;;;;;;;;;5043131;28;20371;-67
2021/03/22 12:20:53;;;;;;;;;;;;;;;;;;5068046;28;20540;-67
2021/03/22 12:23:18;;;;;;;;;;;;;;;;;;5045818;28;20046;-67
2021/03/22 12:25:43;;;;;;;;;;;;;;;;;;5037968;28;19921;-68
2021/03/22 12:28:09;;;;;;;;;;;;;;;;;;5038999;28;19964;-67
2021/03/22 12:30:35;;;;;;;;;;;;;;;;;;5047163;28;19924;-67
2021/03/22 12:33:00;;;;;;;;;;;;;;;;;;5043262;28;19917;-68
2021/03/22 12:35:25;;;;;;;;;;;;;;;;;;5088113;28;19920;-67
2021/03/22 12:37:50;;;;;;;;;;;;;;;;;;5072158;28;20404;-68
2021/03/22 12:40:15;;;;;;;;;;;;;;;;;;5051131;28;20004;-68
2021/03/22 12:42:40;;;;;;;;;;;;;;;;;;5044307;28;19913;-68
2021/03/22 12:45:06;;;;;;;;;;;;;;;;;;5037486;28;19919;-68
2021/03/22 12:47:31;;;;;;;;;;;;;;;;;;5035643;28;19917;-68
2021/03/22 12:49:56;;;;;;;;;;;;;;;;;;5045083;28;19952;-69
2021/03/22 12:52:21;;;;;;;;;;;;;;;;;;5059162;28;19913;-68
2021/03/22 12:54:46;;;;;;;;;;;;;;;;;;5071270;28;20007;-68
2021/03/22 12:57:11;;;;;;;;;;;;;;;;;;5051006;28;19924;-67
2021/03/22 12:59:36;;;;;;;;;;;;;;;;;;5074528;28;19913;-68
2021/03/22 13:02:01;;;;;;;;;;;;;;;;;;5035438;28;19913;-68
2021/03/22 13:04:27;;;;;;;;;;;;;;;;;;5039793;28;19917;-68
2021/03/22 13:06:52;;;;;;;;;;;;;;;;;;5035594;28;19928;-69
2021/03/22 13:09:17;;;;;;;;;;;;;;;;;;5053732;28;20292;-67
2021/03/22 13:11:42;;;;;;;;;;;;;;;;;;5050880;28;19913;-67
2021/03/22 13:14:07;;;;;;;;;;;;;;;;;;5076189;28;20426;-68
2021/03/22 13:16:32;;;;;;;;;;;;;;;;;;5073264;28;20595;-68
2021/03/22 13:18:58;;;;;;;;;;;;;;;;;;5045504;28;20383;-68
2021/03/22 13:21:23;;;;;;;;;;;;;;;;;;5053696;28;20364;-68
2021/03/22 13:23:48;;;;;;;;;;;;;;;;;;5080596;28;20396;-68
2021/03/22 13:26:14;;;;;;;;;;;;;;;;;;5051008;28;19955;-67
2021/03/22 13:28:39;;;;;;;;;;;;;;;;;;5050907;28;19913;-68
2021/03/22 13:31:04;;;;;;;;;;;;;;;;;;5047610;28;19928;-68
2021/03/22 13:33:29;;;;;;;;;;;;;;;;;;5077188;28;19978;-67
2021/03/22 13:35:54;;;;;;;;;;;;;;;;;;5042991;28;20030;-67
2021/03/22 13:38:19;;;;;;;;;;;;;;;;;;5051588;28;19916;-69
2021/03/22 13:40:44;;;;;;;;;;;;;;;;;;5060148;28;19913;-68
2021/03/22 13:43:10;;;;;;;;;;;;;;;;;;5067752;28;19913;-69
2021/03/22 13:45:35;;;;;;;;;;;;;;;;;;5063002;28;19923;-70
2021/03/22 13:48:00;;;;;;;;;;;;;;;;;;5067497;28;20008;-69
2021/03/22 13:50:26;;;;;;;;;;;;;;;;;;5055211;28;19999;-70
2021/03/22 13:52:51;;;;;;;;;;;;;;;;;;5074381;28;19940;-68
2021/03/22 13:55:16;;;;;;;;;;;;;;;;;;5072452;28;19973;-69
2021/03/22 13:57:42;;;;;;;;;;;;;;;;;;5072091;28;19912;-68
2021/03/22 14:00:08;;;;;;;;;;;;;;;;;;5057119;28;19920;-69
2021/03/22 14:02:33;;;;;;;;;;;;;;;;;;5063977;28;19920;-68
2021/03/22 14:05:00;;;;;;;;;;;;;;;;;;5052883;28;19913;-68
2021/03/22 14:07:25;;;;;;;;;;;;;;;;;;5056256;28;19913;-68
2021/03/22 14:09:50;;;;;;;;;;;;;;;;;;5058307;28;19913;-69
2021/03/22 14:12:15;;;;;;;;;;;;;;;;;;5053962;28;19908;-69
2021/03/22 14:14:41;;;;;;;;;;;;;;;;;;5052888;28;19909;-69
2021/03/22 14:17:06;;;;;;;;;;;;;;;;;;5049609;28;19912;-68
2021/03/22 14:19:31;;;;;;;;;;;;;;;;;;5052160;28;20659;-68
2021/03/22 14:21:56;;;;;;;;;;;;;;;;;;5063401;28;20026;-68
2021/03/22 14:24:22;;;;;;;;;;;;;;;;;;5054321;28;19912;-69
2021/03/22 14:26:47;;;;;;;;;;;;;;;;;;5069763;28;19913;-69
2021/03/22 14:29:12;;;;;;;;;;;;;;;;;;5064484;28;19936;-69
2021/03/22 14:31:37;;;;;;;;;;;;;;;;;;5053417;28;20322;-69
2021/03/22 14:34:02;;;;;;;;;;;;;;;;;;5053554;28;19913;-69
2021/03/22 14:36:27;;;;;;;;;;;;;;;;;;5050538;28;19918;-69
2021/03/22 14:38:52;;;;;;;;;;;;;;;;;;5052192;28;19919;-69
2021/03/22 14:41:18;;;;;;;;;;;;;;;;;;5055658;28;20024;-69
2021/03/22 14:43:43;;;;;;;;;;;;;;;;;;5067736;28;19916;-69
2021/03/22 14:46:08;;;;;;;;;;;;;;;;;;5070675;28;19919;-69
2021/03/22 14:48:34;;;;;;;;;;;;;;;;;;5069623;28;19912;-69
2021/03/22 14:50:59;;;;;;;;;;;;;;;;;;5052966;28;19913;-68
2021/03/22 14:53:24;;;;;;;;;;;;;;;;;;5053018;28;20323;-68
2021/03/22 14:55:49;;;;;;;;;;;;;;;;;;5050499;28;19908;-68
2021/03/22 14:58:14;;;;;;;;;;;;;;;;;;5053254;28;20000;-68
2021/03/22 15:00:40;;;;;;;;;;;;;;;;;;5053870;28;20107;-69
2021/03/22 15:03:05;;;;;;;;;;;;;;;;;;5061834;28;20372;-69
2021/03/22 15:05:30;;;;;;;;;;;;;;;;;;5071156;28;20008;-68
2021/03/22 15:07:55;;;;;;;;;;;;;;;;;;5055316;28;20347;-69
2021/03/22 15:10:20;;;;;;;;;;;;;;;;;;5061916;28;19956;-69
2021/03/22 15:12:45;;;;;;;;;;;;;;;;;;5053015;28;19931;-68
2021/03/22 15:15:10;;;;;;;;;;;;;;;;;;5085414;28;20352;-68
2021/03/22 15:17:36;;;;;;;;;;;;;;;;;;5051222;28;19913;-67
2021/03/22 15:20:01;;;;;;;;;;;;;;;;;;5071922;28;19913;-69
2021/03/22 15:22:26;;;;;;;;;;;;;;;;;;5072901;28;19908;-67
2021/03/22 15:24:51;;;;;;;;;;;;;;;;;;5053688;28;19940;-67
2021/03/22 15:27:16;;;;;;;;;;;;;;;;;;5069932;28;19943;-67
2021/03/22 15:29:41;;;;;;;;;;;;;;;;;;5053590;28;19952;-68
2021/03/22 15:32:06;;;;;;;;;;;;;;;;;;5060009;28;19971;-67
2021/03/22 15:34:31;;;;;;;;;;;;;;;;;;5053484;28;19956;-68
2021/03/22 15:36:57;;;;;;;;;;;;;;;;;;5068900;28;19956;-67
2021/03/22 15:39:22;;;;;;;;;;;;;;;;;;5053087;28;19948;-67
2021/03/22 15:41:47;;;;;;;;;;;;;;;;;;5043039;28;19921;-68
2021/03/22 15:44:12;;;;;;;;;;;;;;;;;;5052598;28;19916;-68
2021/03/22 15:46:37;;;;;;;;;;;;;;;;;;5088356;28;19915;-67
2021/03/22 15:49:02;;;;;;;;;;;;;;;;;;5057220;28;19913;-66
2021/03/22 15:51:27;;;;;;;;;;;;;;;;;;5065119;28;19912;-68
2021/03/22 15:53:54;;;;;;;;;;;;;;;;;;5055958;28;20383;-67
2021/03/22 15:56:20;;;;;;;;;;;;;;;;;;5049519;28;19909;-67
2021/03/22 15:58:45;;;;;;;;;;;;;;;;;;5055277;28;19913;-68
2021/03/22 16:01:10;;;;;;;;;;;;;;;;;;5044387;28;20010;-68
2021/03/22 16:03:35;;;;;;;;;;;;;;;;;;5054163;28;20375;-68
2021/03/22 16:06:00;;;;;;;;;;;;;;;;;;5051772;28;19916;-66
2021/03/22 16:08:25;;;;;;;;;;;;;;;;;;5048875;28;19913;-69
2021/03/22 16:10:51;;;;;;;;;;;;;;;;;;5041315;28;19909;-69
2021/03/22 16:13:16;;;;;;;;;;;;;;;;;;5087589;28;19920;-68
2021/03/22 16:15:41;;;;;;;;;;;;;;;;;;5040585;28;20019;-68
2021/03/22 16:18:06;;;;;;;;;;;;;;;;;;5088562;28;19920;-69
2021/03/22 16:20:31;;;;;;;;;;;;;;;;;;5053250;28;19927;-69
2021/03/22 16:22:56;;;;;;;;;;;;;;;;;;5047464;28;19913;-68
2021/03/22 16:25:21;;;;;;;;;;;;;;;;;;5054011;28;20015;-70
2021/03/22 16:27:46;;;;;;;;;;;;;;;;;;5062447;28;19999;-70
2021/03/22 16:30:12;;;;;;;;;;;;;;;;;;5072794;28;19942;-69